No particular awareness of the weather is required.    There are no Weather-warnings


Meteo18 Weather Cam more information Meteo18 Weather Cam


Thunder radar more information blitzortung!


Rain radar more information rain snow radar


Visit our other weather sites:

Template documentation
and downloads

And another site



Weather Underground History page Text

Daily Summary for March 22, 2017 Units:  English    Metric   Both
« Previous Day
Next Day »
Daily Weekly Monthly Yearly Custom
  High: Low: Average:
Temperature: TemperatureC °F 0.5 °F 6.6 °F
Dew Point: DewpointC °F -0.1 °F 3.3 °F
Humidity: Humidity % 55 % 81 %
Wind Speed: WindSpeedKMH mph 0.0 mph 3.2 mph
Wind Gust: WindSpeedGustKMH mph - -
Wind:- - SE
Pressure: PressurehPa in 1008.4 in -
Precipitation: 0.3 in    
Historical Graphs
 
 
Tabular Data for March 22, 2017
Time Temperature Dew Point Pressure Wind Wind Speed Wind Gust Humidity Rainfall Rate (Hourly)
TemperatureC °F DewpointC °F PressurehPa in Calm     Humidity % HourlyPrecipMM in
00:02 3.5 °F 2.8 °F 1016.1 in Calm   3.2 mph 95 % 0.0 in
00:12 3.4 °F 2.8 °F 1016.1 in Calm     96 % 0.0 in
00:17 3.4 °F 2.8 °F 1016.1 in SW 3.2 mph   96 % 0.0 in
00:22 3.5 °F 2.9 °F 1016.1 in WSW 3.2 mph 4.8 mph 96 % 0.0 in
00:32 3.6 °F 3.0 °F 1016.1 in SW 3.2 mph 4.8 mph 96 % 0.0 in
00:37 3.5 °F 2.9 °F 1016.1 in WSW 1.6 mph 4.8 mph 96 % 0.0 in
00:42 3.5 °F 2.9 °F 1016.1 in SW 1.6 mph 4.8 mph 96 % 0.0 in
00:47 3.4 °F 2.8 °F 1016.1 in Calm   3.2 mph 96 % 0.0 in
00:52 3.3 °F 2.6 °F 1016.1 in Calm   3.2 mph 95 % 0.0 in
00:57 3.2 °F 2.5 °F 1016.1 in Calm   3.2 mph 95 % 0.0 in
01:02 3.1 °F 2.4 °F 1016.1 in Calm   3.2 mph 95 % 0.0 in
01:07 3.0 °F 2.3 °F 1016.1 in Calm     95 % 0.0 in
01:17 2.8 °F 2.2 °F 1015.8 in Calm     96 % 0.3 in
01:22 2.8 °F 2.2 °F 1015.8 in Calm     96 % 0.3 in
01:32 2.8 °F 2.2 °F 1016.1 in Calm     96 % 0.3 in
01:42 2.6 °F 2.0 °F 1015.8 in Calm   1.6 mph 96 % 0.3 in
01:52 2.2 °F 1.6 °F 1015.8 in Calm   1.6 mph 96 % 0.3 in
01:57 2.2 °F 1.6 °F 1015.8 in SE 1.6 mph 1.6 mph 96 % 0.3 in
02:02 2.3 °F 1.7 °F 1015.8 in Calm   1.6 mph 96 % 0.3 in
02:07 2.3 °F 1.7 °F 1015.8 in Calm   1.6 mph 96 % 0.3 in
02:12 2.2 °F 1.6 °F 1015.5 in Calm   1.6 mph 96 % 0.3 in
02:17 2.1 °F 1.5 °F 1015.5 in Calm     96 % 0.0 in
02:22 1.8 °F 1.1 °F 1015.5 in Calm     95 % 0.0 in
02:27 1.7 °F 1.1 °F 1015.5 in Calm     96 % 0.0 in
02:32 1.5 °F 0.9 °F 1015.5 in Calm     96 % 0.0 in
02:37 1.4 °F 0.8 °F 1015.1 in Calm     96 % 0.0 in
02:42 1.2 °F 0.6 °F 1015.1 in Calm     96 % 0.0 in
02:47 1.1 °F 0.5 °F 1015.1 in Calm     96 % 0.0 in
02:52 1.1 °F 0.5 °F 1015.1 in Calm     96 % 0.0 in
02:57 0.9 °F 0.3 °F 1014.8 in Calm     96 % 0.0 in
03:02 0.9 °F 0.3 °F 1014.8 in Calm     96 % 0.0 in
03:12 1.3 °F 0.9 °F 1014.8 in Calm     97 % 0.0 in
03:17 1.4 °F 1.0 °F 1014.8 in Calm     97 % 0.0 in
03:22 1.5 °F 1.1 °F 1014.8 in Calm     97 % 0.0 in
03:32 1.7 °F 1.3 °F 1014.4 in Calm     97 % 0.0 in
03:37 1.6 °F 1.2 °F 1014.4 in Calm     97 % 0.0 in
03:42 1.6 °F 1.2 °F 1014.4 in Calm     97 % 0.0 in
03:47 1.4 °F 0.8 °F 1014.4 in Calm     96 % 0.0 in
03:52 1.4 °F 1.0 °F 1014.4 in Calm     97 % 0.0 in
03:57 1.4 °F 1.0 °F 1014.4 in Calm     97 % 0.0 in
04:02 1.3 °F 0.9 °F 1014.4 in Calm     97 % 0.0 in
04:07 0.9 °F 0.3 °F 1014.4 in Calm   3.2 mph 96 % 0.0 in
04:12 0.8 °F 0.2 °F 1014.1 in Calm   3.2 mph 96 % 0.0 in
04:17 1.1 °F 0.7 °F 1014.1 in Calm   1.6 mph 97 % 0.0 in
04:22 1.1 °F 0.7 °F 1014.4 in Calm   1.6 mph 97 % 0.0 in
04:32 1.0 °F 0.6 °F 1014.4 in Calm     97 % 0.0 in
04:37 0.8 °F 0.2 °F 1014.1 in Calm     96 % 0.0 in
04:42 0.9 °F 0.5 °F 1014.1 in Calm     97 % 0.0 in
04:47 1.1 °F 0.7 °F 1014.1 in Calm     97 % 0.0 in
04:52 1.1 °F 0.7 °F 1014.1 in Calm     97 % 0.0 in
04:57 1.1 °F 0.7 °F 1014.1 in Calm     97 % 0.0 in
05:02 1.1 °F 0.7 °F 1013.8 in Calm     97 % 0.0 in
05:07 1.1 °F 0.7 °F 1013.8 in Calm     97 % 0.0 in
05:12 0.8 °F 0.2 °F 1013.8 in Calm     96 % 0.0 in
05:22 0.5 °F -0.1 °F 1013.8 in Calm     96 % 0.0 in
05:32 0.7 °F 0.3 °F 1013.8 in Calm     97 % 0.0 in
05:37 0.6 °F 0.2 °F 1013.8 in Calm     97 % 0.0 in
05:42 0.6 °F 0.2 °F 1013.8 in Calm     97 % 0.0 in
05:52 0.9 °F 0.5 °F 1013.8 in Calm     97 % 0.0 in
06:02 1.0 °F 0.6 °F 1013.4 in Calm     97 % 0.0 in
06:07 0.9 °F 0.5 °F 1013.4 in Calm     97 % 0.0 in
06:12 0.7 °F 0.3 °F 1013.4 in Calm     97 % 0.0 in
06:17 0.6 °F 0.2 °F 1013.4 in Calm     97 % 0.0 in
06:22 0.7 °F 0.3 °F 1013.4 in Calm     97 % 0.0 in
06:32 0.6 °F 0.2 °F 1013.4 in Calm     97 % 0.0 in
06:37 0.7 °F 0.3 °F 1013.4 in Calm     97 % 0.0 in
06:42 0.8 °F 0.4 °F 1013.4 in Calm     97 % 0.0 in
06:47 0.9 °F 0.5 °F 1013.4 in Calm     97 % 0.0 in
06:52 0.9 °F 0.5 °F 1013.4 in Calm     97 % 0.0 in
06:57 1.0 °F 0.6 °F 1013.1 in Calm     97 % 0.0 in
07:02 1.1 °F 0.7 °F 1013.4 in Calm     97 % 0.0 in
07:12 1.3 °F 0.9 °F 1013.1 in Calm     97 % 0.0 in
07:22 1.4 °F 1.0 °F 1013.4 in Calm     97 % 0.0 in
07:32 1.5 °F 1.1 °F 1013.1 in Calm     97 % 0.0 in
07:42 2.2 °F 1.8 °F 1013.1 in Calm     97 % 0.0 in
07:47 2.3 °F 1.9 °F 1013.1 in Calm     97 % 0.0 in
07:52 2.7 °F 2.3 °F 1013.1 in SE 1.6 mph   97 % 0.0 in
07:57 2.9 °F 2.5 °F 1013.1 in SSE 3.2 mph 3.2 mph 97 % 0.0 in
08:02 3.2 °F 2.8 °F 1013.1 in Calm   3.2 mph 97 % 0.0 in
08:07 3.3 °F 2.9 °F 1013.1 in East 1.6 mph 6.4 mph 97 % 0.0 in
08:12 3.7 °F 3.3 °F 1013.1 in Calm   6.4 mph 97 % 0.0 in
08:17 3.7 °F 3.1 °F 1013.1 in ESE 3.2 mph 3.2 mph 96 % 0.0 in
08:22 3.9 °F 3.3 °F 1013.1 in Calm   3.2 mph 96 % 0.0 in
08:32 3.8 °F 3.1 °F 1013.1 in SE 1.6 mph 6.4 mph 95 % 0.0 in
08:42 3.9 °F 3.2 °F 1013.1 in SE 3.2 mph 4.8 mph 95 % 0.0 in
08:52 4.5 °F 3.8 °F 1012.8 in Calm   8.0 mph 95 % 0.0 in
09:02 4.9 °F 3.9 °F 1012.8 in SSE 3.2 mph 6.4 mph 93 % 0.0 in
09:07 5.2 °F 4.2 °F 1012.8 in ESE 4.8 mph 6.4 mph 93 % 0.0 in
09:12 5.5 °F 4.3 °F 1012.8 in SSW 3.2 mph 6.4 mph 92 % 0.0 in
09:17 5.7 °F 4.5 °F 1012.8 in SSE 4.8 mph 8.0 mph 92 % 0.0 in
09:22 5.7 °F 4.2 °F 1013.1 in South 3.2 mph 8.0 mph 90 % 0.0 in
09:32 6.1 °F 4.4 °F 1012.8 in East 9.7 mph 9.7 mph 89 % 0.0 in
09:37 6.2 °F 4.4 °F 1012.8 in SE 3.2 mph 9.7 mph 88 % 0.0 in
09:42 6.4 °F 4.7 °F 1012.8 in SE 3.2 mph 9.7 mph 89 % 0.0 in
09:47 6.6 °F 4.6 °F 1012.8 in SE 3.2 mph 11.3 mph 87 % 0.0 in
09:52 7.1 °F 5.4 °F 1012.8 in ESE 8.0 mph 11.3 mph 89 % 0.0 in
10:02 7.2 °F 5.0 °F 1012.8 in SSE 1.6 mph 11.3 mph 86 % 0.0 in
10:07 7.3 °F 4.8 °F 1012.8 in South 4.8 mph 12.9 mph 84 % 0.0 in
10:17 7.4 °F 4.9 °F 1012.8 in Calm   12.9 mph 84 % 0.0 in
10:22 7.6 °F 5.4 °F 1012.8 in SE 3.2 mph 12.9 mph 86 % 0.0 in
10:32 7.9 °F 5.5 °F 1012.8 in SSE 4.8 mph 12.9 mph 85 % 0.0 in
10:42 8.1 °F 4.9 °F 1012.4 in East 6.4 mph 14.5 mph 80 % 0.0 in
10:47 8.2 °F 5.3 °F 1012.4 in SE 9.7 mph 14.5 mph 82 % 0.0 in
10:52 8.0 °F 4.9 °F 1012.4 in SE 4.8 mph 14.5 mph 81 % 0.0 in
10:57 8.1 °F 5.6 °F 1012.4 in South 1.6 mph 16.1 mph 84 % 0.0 in
11:02 8.4 °F 5.3 °F 1012.4 in ESE 4.8 mph 16.1 mph 81 % 0.0 in
11:07 8.2 °F 5.0 °F 1012.4 in SSE 4.8 mph 14.5 mph 80 % 0.0 in
11:12 8.2 °F 5.0 °F 1012.4 in SSE 3.2 mph 14.5 mph 80 % 0.0 in
11:17 8.4 °F 5.2 °F 1012.1 in SSW 6.4 mph 17.7 mph 80 % 0.0 in
11:22 8.7 °F 5.6 °F 1012.1 in SSE 8.0 mph 17.7 mph 81 % 0.0 in
11:32 8.7 °F 5.4 °F 1012.1 in SSE 4.8 mph 16.1 mph 80 % 0.0 in
11:42 8.9 °F 5.8 °F 1012.1 in SE 4.8 mph 14.5 mph 81 % 0.0 in
11:52 8.4 °F 5.3 °F 1012.1 in SE 3.2 mph 16.1 mph 81 % 0.0 in
12:02 8.9 °F 6.2 °F 1012.1 in South 3.2 mph 22.5 mph 83 % 0.0 in
12:07 9.2 °F 6.3 °F 1011.7 in SE 6.4 mph 19.3 mph 82 % 0.0 in
12:12 9.5 °F 5.9 °F 1011.7 in SSE 3.2 mph 19.3 mph 78 % 0.0 in
12:17 9.4 °F 5.6 °F 1011.7 in SW 1.6 mph 12.9 mph 77 % 0.0 in
12:22 9.7 °F 6.0 °F 1011.4 in ESE 4.8 mph 19.3 mph 78 % 0.0 in
12:27 10.0 °F 6.2 °F 1011.4 in SE 8.0 mph 19.3 mph 77 % 0.0 in
12:32 9.9 °F 5.7 °F 1011.4 in East 6.4 mph 19.3 mph 75 % 0.0 in
12:37 9.8 °F 5.6 °F 1011.4 in ESE 6.4 mph 19.3 mph 75 % 0.0 in
12:42 9.8 °F 5.4 °F 1011.4 in SE 3.2 mph 17.7 mph 74 % 0.0 in
12:47 9.9 °F 5.5 °F 1011.4 in SE 1.6 mph 17.7 mph 74 % 0.0 in
12:52 9.9 °F 5.3 °F 1011.1 in East 4.8 mph 17.7 mph 73 % 0.0 in
12:57 9.8 °F 4.6 °F 1011.1 in East 4.8 mph 19.3 mph 70 % 0.0 in
13:02 10.1 °F 4.9 °F 1011.1 in SSE 6.4 mph 19.3 mph 70 % 0.0 in
13:12 10.7 °F 5.0 °F 1011.1 in Calm   19.3 mph 68 % 0.0 in
13:17 10.8 °F 4.7 °F 1011.1 in SE 8.0 mph 17.7 mph 66 % 0.0 in
13:22 10.9 °F 4.6 °F 1011.1 in SSE 6.4 mph 17.7 mph 65 % 0.0 in
13:27 11.6 °F 5.9 °F 1010.7 in SSE 4.8 mph 17.7 mph 68 % 0.0 in
13:37 11.4 °F 4.6 °F 1010.7 in SSE 9.7 mph 20.9 mph 63 % 0.0 in
13:42 11.6 °F 4.8 °F 1010.4 in South 12.9 mph 20.9 mph 63 % 0.0 in
13:52 11.6 °F 3.4 °F 1010.4 in SSE 6.4 mph 24.1 mph 57 % 0.0 in
13:57 11.7 °F 4.4 °F 1010.4 in SSE 9.7 mph 24.1 mph 61 % 0.0 in
14:02 11.8 °F 3.8 °F 1010.4 in ESE 9.7 mph 24.1 mph 58 % 0.0 in
14:07 11.9 °F 4.1 °F 1010.4 in SSW 6.4 mph 20.9 mph 59 % 0.0 in
14:12 12.1 °F 4.1 °F 1010.4 in SSE 14.5 mph 20.9 mph 58 % 0.0 in
14:17 12.2 °F 3.4 °F 1010.4 in SW 14.5 mph 16.1 mph 55 % 0.0 in
14:22 11.8 °F 3.0 °F 1010.4 in SE 8.0 mph 16.1 mph 55 % 0.0 in
14:32 11.9 °F 3.1 °F 1010.0 in SSE 8.0 mph 17.7 mph 55 % 0.0 in
14:37 12.1 °F 4.3 °F 1010.0 in South 3.2 mph 16.1 mph 59 % 0.0 in
14:42 12.4 °F 4.1 °F 1010.0 in SSW 12.9 mph 16.1 mph 57 % 0.0 in
14:52 11.9 °F 3.4 °F 1010.0 in SE 3.2 mph 17.7 mph 56 % 0.0 in
14:57 12.3 °F 4.3 °F 1009.7 in SSW 4.8 mph 16.1 mph 58 % 0.0 in
15:02 12.2 °F 3.4 °F 1009.7 in ESE 4.8 mph 16.1 mph 55 % 0.0 in
15:12 12.5 °F 4.5 °F 1009.7 in SSE 8.0 mph 16.1 mph 58 % 0.0 in
15:17 12.7 °F 4.4 °F 1009.7 in SSE 9.7 mph 16.1 mph 57 % 0.0 in
15:22 12.5 °F 3.7 °F 1009.4 in SE 9.7 mph 16.1 mph 55 % 0.0 in
15:32 12.3 °F 4.5 °F 1009.4 in SSE 3.2 mph 16.1 mph 59 % 0.0 in
15:42 12.6 °F 5.0 °F 1009.4 in SSW 8.0 mph 17.7 mph 60 % 0.0 in
15:47 12.8 °F 4.7 °F 1009.4 in East 3.2 mph 14.5 mph 58 % 0.0 in
15:52 12.8 °F 4.7 °F 1009.4 in SE 11.3 mph 14.5 mph 58 % 0.0 in
16:02 12.2 °F 3.7 °F 1009.4 in ESE 9.7 mph 12.9 mph 56 % 0.0 in
16:12 12.4 °F 4.4 °F 1009.4 in South 3.2 mph 12.9 mph 58 % 0.0 in
16:17 12.6 °F 4.8 °F 1009.4 in ESE 6.4 mph 14.5 mph 59 % 0.0 in
16:22 12.3 °F 5.0 °F 1009.4 in SE 11.3 mph 14.5 mph 61 % 0.0 in
16:32 12.2 °F 5.6 °F 1009.0 in SE 6.4 mph 20.9 mph 64 % 0.0 in
16:42 12.0 °F 5.6 °F 1009.0 in East 8.0 mph 19.3 mph 65 % 0.0 in
16:47 11.9 °F 5.3 °F 1009.0 in SE 6.4 mph 16.1 mph 64 % 0.0 in
16:52 11.8 °F 5.4 °F 1009.0 in ESE 4.8 mph 16.1 mph 65 % 0.0 in
16:57 11.7 °F 4.9 °F 1008.7 in ESE 12.9 mph 17.7 mph 63 % 0.0 in
17:02 11.7 °F 4.9 °F 1008.7 in East 12.9 mph 17.7 mph 63 % 0.0 in
17:12 11.8 °F 5.0 °F 1008.7 in East 4.8 mph 17.7 mph 63 % 0.0 in
17:17 11.7 °F 4.9 °F 1008.7 in East 14.5 mph 16.1 mph 63 % 0.0 in
17:22 11.7 °F 5.3 °F 1008.7 in SE 11.3 mph 16.1 mph 65 % 0.0 in
17:27 12.0 °F 5.2 °F 1008.7 in East 6.4 mph 16.1 mph 63 % 0.0 in
17:32 12.2 °F 5.6 °F 1008.7 in ESE 6.4 mph 16.1 mph 64 % 0.0 in
17:42 11.9 °F 4.8 °F 1008.4 in East 17.7 mph 17.7 mph 62 % 0.0 in
17:47 11.8 °F 4.8 °F 1008.4 in ESE 16.1 mph 20.9 mph 62 % 0.0 in
17:52 11.8 °F 4.8 °F 1008.4 in ESE 4.8 mph 20.9 mph 62 % 0.0 in
17:57 11.7 °F 4.7 °F 1008.7 in SSE 6.4 mph 20.9 mph 62 % 0.0 in
18:02 11.5 °F 4.7 °F 1008.7 in East 17.7 mph 20.9 mph 63 % 0.0 in
18:12 11.2 °F 4.6 °F 1008.7 in East 6.4 mph 17.7 mph 64 % 0.0 in
18:17 11.0 °F 4.9 °F 1008.7 in NE 4.8 mph 17.7 mph 66 % 0.0 in
18:22 10.9 °F 4.8 °F 1008.7 in ESE 3.2 mph 9.7 mph 66 % 0.0 in
18:27 10.8 °F 4.7 °F 1008.7 in East 4.8 mph 9.7 mph 66 % 0.0 in
18:32 10.9 °F 4.8 °F 1008.4 in East 6.4 mph 9.7 mph 66 % 0.0 in
18:37 10.9 °F 4.6 °F 1008.4 in ENE 6.4 mph 9.7 mph 65 % 0.0 in
18:42 10.8 °F 4.5 °F 1008.4 in ESE 6.4 mph 9.7 mph 65 % 0.0 in
18:52 10.8 °F 4.0 °F 1008.4 in East 8.0 mph 12.9 mph 63 % 0.0 in
18:57 10.7 °F 4.2 °F 1008.4 in East 9.7 mph 14.5 mph 64 % 0.0 in
19:02 10.6 °F 4.1 °F 1008.4 in East 9.7 mph 14.5 mph 64 % 0.0 in
19:12 10.3 °F 3.8 °F 1008.4 in East 8.0 mph 14.5 mph 64 % 0.0 in
19:17 10.3 °F 3.8 °F 1008.4 in East 4.8 mph 12.9 mph 64 % 0.0 in
19:22 10.2 °F 3.5 °F 1008.4 in East 3.2 mph 12.9 mph 63 % 0.0 in
19:27 10.0 °F 3.7 °F 1008.4 in ESE 1.6 mph 11.3 mph 65 % 0.0 in
19:32 9.7 °F 3.9 °F 1008.4 in East 1.6 mph 11.3 mph 67 % 0.0 in
19:37 9.5 °F 3.7 °F 1008.4 in ESE 1.6 mph 4.8 mph 67 % 0.0 in
19:42 9.4 °F 3.6 °F 1008.4 in East 3.2 mph 4.8 mph 67 % 0.0 in
19:52 9.3 °F 3.3 °F 1008.4 in East 1.6 mph 4.8 mph 66 % 0.0 in
19:57 9.3 °F 3.3 °F 1008.4 in East 3.2 mph 4.8 mph 66 % 0.0 in
20:02 9.3 °F 3.3 °F 1008.4 in East 3.2 mph 4.8 mph 66 % 0.0 in
20:07 9.2 °F 3.2 °F 1008.4 in East 1.6 mph 4.8 mph 66 % 0.0 in
20:12 9.1 °F 3.1 °F 1008.4 in Calm   4.8 mph 66 % 0.0 in
20:17 8.9 °F 3.1 °F 1008.7 in Calm   4.8 mph 67 % 0.0 in
20:22 8.7 °F 3.1 °F 1008.7 in Calm   4.8 mph 68 % 0.0 in
20:32 8.1 °F 3.2 °F 1008.7 in Calm   3.2 mph 71 % 0.0 in
20:37 7.9 °F 3.2 °F 1008.7 in Calm     72 % 0.0 in
20:42 8.1 °F 3.4 °F 1009.0 in Calm     72 % 0.0 in
20:47 8.1 °F 3.2 °F 1009.0 in Calm   6.4 mph 71 % 0.0 in
20:52 8.1 °F 3.2 °F 1009.0 in Calm   6.4 mph 71 % 0.0 in
20:57 7.9 °F 3.2 °F 1009.0 in Calm   3.2 mph 72 % 0.0 in
21:02 7.8 °F 3.3 °F 1008.7 in Calm   3.2 mph 73 % 0.0 in
21:07 7.8 °F 3.6 °F 1008.7 in Calm   1.6 mph 75 % 0.0 in
21:12 7.8 °F 3.5 °F 1008.7 in Calm   1.6 mph 74 % 0.0 in
21:17 7.7 °F 3.5 °F 1009.0 in Calm   3.2 mph 75 % 0.0 in
21:22 7.6 °F 3.6 °F 1009.0 in Calm   3.2 mph 76 % 0.0 in
21:32 7.7 °F 3.9 °F 1009.0 in Calm   1.6 mph 77 % 0.0 in
21:42 7.8 °F 3.8 °F 1009.4 in Calm   1.6 mph 76 % 0.0 in
21:47 7.8 °F 4.0 °F 1009.4 in Calm   1.6 mph 77 % 0.0 in
21:52 7.8 °F 4.0 °F 1009.4 in SW 3.2 mph 3.2 mph 77 % 0.0 in
21:57 7.9 °F 4.1 °F 1009.4 in South 1.6 mph 6.4 mph 77 % 0.0 in
22:07 7.9 °F 4.5 °F 1009.4 in SSW 1.6 mph 6.4 mph 79 % 0.0 in
22:12 7.8 °F 4.6 °F 1009.4 in ESE 1.6 mph 6.4 mph 80 % 0.0 in
22:17 7.7 °F 4.5 °F 1009.4 in Calm   6.4 mph 80 % 0.0 in
22:22 7.7 °F 4.3 °F 1009.4 in SE 1.6 mph 6.4 mph 79 % 0.0 in
22:32 7.8 °F 4.4 °F 1009.4 in WSW 9.7 mph 9.7 mph 79 % 0.0 in
22:37 8.0 °F 4.4 °F 1009.4 in SSE 6.4 mph 11.3 mph 78 % 0.0 in
22:42 8.1 °F 4.5 °F 1009.4 in SSW 6.4 mph 11.3 mph 78 % 0.0 in
22:52 7.9 °F 4.7 °F 1009.4 in SW 3.2 mph 11.3 mph 80 % 0.0 in
22:57 7.7 °F 4.6 °F 1009.4 in SSW 3.2 mph 8.0 mph 81 % 0.0 in
23:02 7.5 °F 4.5 °F 1009.4 in SSW 1.6 mph 8.0 mph 81 % 0.0 in
23:07 7.3 °F 4.4 °F 1009.4 in SSW 3.2 mph 6.4 mph 82 % 0.0 in
23:12 7.1 °F 4.2 °F 1009.7 in SSW 1.6 mph 6.4 mph 82 % 0.0 in
23:17 6.8 °F 4.1 °F 1009.4 in Calm   6.4 mph 83 % 0.0 in
23:22 6.8 °F 4.3 °F 1009.4 in SSW 4.8 mph 6.4 mph 84 % 0.0 in
23:32 6.9 °F 4.2 °F 1009.4 in Calm   6.4 mph 83 % 0.0 in
23:42 6.5 °F 4.2 °F 1009.7 in Calm   4.8 mph 85 % 0.0 in
23:47 6.4 °F 4.2 °F 1009.4 in Calm   1.6 mph 86 % 0.0 in
23:52 6.5 °F 4.3 °F 1009.4 in Calm   1.6 mph 86 % 0.0 in
23:57 6.5 °F 4.5 °F 1009.4 in Calm   1.6 mph 87 % 0.0 in
Meteo18
Compliments of Weather Underground - 4 mb

Script developed by  Jim McMurry - jmcmurry@mwt.net Adapted for the template by  Wim van der Kuil - Leuven-Template.eu

You find our weather info also at:

European Weather Network

Weather Underground

Equipment we use:

Weather-station
Davis Vue

Weather-program
Meteobridge

Weather-server
Raspberry PI 2 B+

Provider
1 and 1

Davis Vue

Meteobridge

Raspberry PI 2 B+

1 and 1